createdAt,value
2023-03-10T00:01:21.389Z,7.82
2023-03-10T00:03:49.736Z,7.81
2023-03-10T00:06:20.759Z,7.77
2023-03-10T00:08:48.529Z,7.75
2023-03-10T00:11:15.466Z,7.71
2023-03-10T00:13:42.843Z,7.65
2023-03-10T00:16:25.260Z,7.58
2023-03-10T00:18:53.154Z,7.46
2023-03-10T00:21:24.706Z,7.37
2023-03-10T00:23:53.038Z,7.30
2023-03-10T00:26:21.986Z,7.21
2023-03-10T00:28:50.017Z,7.15
2023-03-10T00:31:21.723Z,7.12
2023-03-10T00:33:49.405Z,7.07
2023-03-10T00:36:23.439Z,7.07
2023-03-10T00:38:53.076Z,7.05
2023-03-10T00:41:26.596Z,7.01
2023-03-10T00:43:54.337Z,6.99
2023-03-10T00:46:21.446Z,6.92
2023-03-10T00:48:48.615Z,6.89
2023-03-10T00:51:16.433Z,6.85
2023-03-10T00:53:43.721Z,6.80
2023-03-10T00:56:25.676Z,6.75
2023-03-10T00:58:55.958Z,6.69
2023-03-10T01:01:39.591Z,6.61
2023-03-10T01:04:12.105Z,6.54
2023-03-10T01:06:39.769Z,6.50
2023-03-10T01:09:07.737Z,6.48
2023-03-10T01:11:35.176Z,6.40
2023-03-10T01:14:05.953Z,6.35
2023-03-10T01:16:33.613Z,6.32
2023-03-10T01:19:00.894Z,6.25
2023-03-10T01:21:33.028Z,6.22
2023-03-10T01:24:01.364Z,6.18
2023-03-10T01:26:30.119Z,6.15
2023-03-10T01:28:57.350Z,6.12
2023-03-10T01:31:24.299Z,6.09
2023-03-10T01:33:51.295Z,6.07
2023-03-10T01:36:25.789Z,6.04
2023-03-10T01:38:55.744Z,6.08
2023-03-10T01:41:23.427Z,6.04
2023-03-10T01:43:53.768Z,6.04
2023-03-10T01:46:44.157Z,6.05
2023-03-10T01:49:26.480Z,6.05
2023-03-10T01:52:11.666Z,6.06
2023-03-10T01:55:07.584Z,6.02
2023-03-10T01:57:41.733Z,6.02
2023-03-10T02:00:12.851Z,6.02
2023-03-10T02:03:15.460Z,6.03
2023-03-10T02:05:51.903Z,5.98
2023-03-10T02:08:20.669Z,5.98
2023-03-10T02:10:49.845Z,6.00
2023-03-10T02:13:17.352Z,6.00
2023-03-10T02:15:45.238Z,6.02
2023-03-10T02:18:15.171Z,5.99
2023-03-10T02:21:03.968Z,5.99
2023-03-10T02:23:58.662Z,5.91
2023-03-10T02:26:56.759Z,5.91
2023-03-10T02:29:52.470Z,5.86
2023-03-10T02:32:24.883Z,5.79
2023-03-10T02:34:51.993Z,5.75
2023-03-10T02:37:27.267Z,5.72
2023-03-10T02:39:55.518Z,5.71
2023-03-10T02:42:26.799Z,5.70
2023-03-10T02:44:54.612Z,5.71
2023-03-10T02:47:21.715Z,5.68
2023-03-10T02:49:48.879Z,5.71
2023-03-10T02:52:39.504Z,5.74
2023-03-10T02:55:07.117Z,5.78
2023-03-10T02:57:34.217Z,5.86
2023-03-10T03:00:02.495Z,5.93
2023-03-10T03:02:31.095Z,5.95
2023-03-10T03:04:58.115Z,6.03
2023-03-10T03:07:25.184Z,6.09
2023-03-10T03:09:52.345Z,6.13
2023-03-10T03:12:19.210Z,6.13
2023-03-10T03:14:47.080Z,6.12
2023-03-10T03:17:14.323Z,6.16
2023-03-10T03:19:41.649Z,6.16
2023-03-10T03:22:08.624Z,6.21
2023-03-10T03:24:35.625Z,6.24
2023-03-10T03:27:02.982Z,6.32
2023-03-10T03:29:30.039Z,6.37
2023-03-10T03:31:57.205Z,6.41
2023-03-10T03:34:29.146Z,6.46
2023-03-10T03:36:59.691Z,6.53
2023-03-10T03:39:34.677Z,6.55
2023-03-10T03:42:05.088Z,6.64
2023-03-10T03:44:41.070Z,6.72
2023-03-10T03:47:10.816Z,6.78
2023-03-10T03:49:40.529Z,6.87
2023-03-10T03:52:08.501Z,6.97
2023-03-10T03:54:35.905Z,7.01
2023-03-10T03:57:03.722Z,7.09
2023-03-10T03:59:31.480Z,7.15
2023-03-10T04:01:58.519Z,7.19
2023-03-10T04:04:26.200Z,7.19
2023-03-10T04:06:53.583Z,7.24
2023-03-10T04:09:20.630Z,7.28
2023-03-10T04:11:47.911Z,7.29
2023-03-10T04:14:14.855Z,7.31
2023-03-10T04:16:42.185Z,7.39
2023-03-10T04:19:09.410Z,7.46
2023-03-10T04:21:40.903Z,7.54
2023-03-10T04:24:08.598Z,7.58
2023-03-10T04:26:35.892Z,7.63
2023-03-10T04:29:03.564Z,7.64
2023-03-10T04:31:32.975Z,7.69
2023-03-10T04:34:02.228Z,7.69
2023-03-10T04:36:29.343Z,7.67
2023-03-10T04:38:59.261Z,7.66
2023-03-10T04:41:30.151Z,7.67
2023-03-10T04:43:57.274Z,7.67
2023-03-10T04:46:24.491Z,7.63
2023-03-10T04:48:51.896Z,7.60
2023-03-10T04:51:20.014Z,7.56
2023-03-10T04:53:51.643Z,7.52
2023-03-10T04:56:19.550Z,7.48
2023-03-10T04:58:47.211Z,7.42
2023-03-10T05:01:15.749Z,7.35
2023-03-10T05:03:47.448Z,7.29
2023-03-10T05:06:18.302Z,7.30
2023-03-10T05:08:50.884Z,7.25
2023-03-10T05:11:20.776Z,7.19
2023-03-10T05:13:48.248Z,7.18
2023-03-10T05:16:22.015Z,7.12
2023-03-10T05:18:50.413Z,7.09
2023-03-10T05:21:22.268Z,7.07
2023-03-10T05:23:50.853Z,7.07
2023-03-10T05:26:19.291Z,7.06
2023-03-10T05:28:46.706Z,7.08
2023-03-10T05:31:17.335Z,7.14
2023-03-10T05:33:47.808Z,7.20
2023-03-10T05:36:14.790Z,7.27
2023-03-10T05:38:44.334Z,7.36
2023-03-10T05:41:13.956Z,7.52
2023-03-10T05:43:42.523Z,7.68
2023-03-10T05:46:12.520Z,7.85
2023-03-10T05:48:45.439Z,8.03
2023-03-10T05:51:13.420Z,8.26
2023-03-10T05:53:41.997Z,8.41
2023-03-10T05:56:18.236Z,8.60
2023-03-10T05:58:50.892Z,8.75
2023-03-10T06:01:20.292Z,8.88
2023-03-10T06:03:47.718Z,8.97
2023-03-10T06:06:14.770Z,9.09
2023-03-10T06:08:43.024Z,9.23
2023-03-10T06:11:10.232Z,9.42
2023-03-10T06:13:37.573Z,9.64
2023-03-10T06:16:06.986Z,9.77
2023-03-10T06:18:34.850Z,9.99
2023-03-10T06:21:10.435Z,10.18
2023-03-10T06:23:37.921Z,10.36
2023-03-10T06:26:09.080Z,10.50
2023-03-10T06:28:39.086Z,10.65
2023-03-10T06:31:20.756Z,10.77
2023-03-10T06:33:48.005Z,10.90
2023-03-10T06:36:16.538Z,11.03
2023-03-10T06:38:44.242Z,11.14
2023-03-10T06:41:11.879Z,11.30
2023-03-10T06:43:39.592Z,11.45
2023-03-10T06:46:08.785Z,11.61
2023-03-10T06:48:37.147Z,11.74
2023-03-10T06:51:10.666Z,11.85
2023-03-10T06:53:38.009Z,12.01
2023-03-10T06:56:10.595Z,12.16
2023-03-10T06:58:38.436Z,12.30
2023-03-10T07:01:07.454Z,12.43
2023-03-10T07:03:36.206Z,12.58
2023-03-10T07:06:03.288Z,12.73
2023-03-10T07:08:30.695Z,12.84
2023-03-10T07:10:57.860Z,12.96
2023-03-10T07:13:25.138Z,13.08
2023-03-10T07:15:52.327Z,13.23
2023-03-10T07:18:19.767Z,13.43
2023-03-10T07:20:52.967Z,13.56
2023-03-10T07:23:20.335Z,13.78
2023-03-10T07:25:55.971Z,13.93
2023-03-10T07:28:24.896Z,14.16
2023-03-10T07:30:52.366Z,14.37
2023-03-10T07:33:19.311Z,14.56
2023-03-10T07:35:46.414Z,14.78
2023-03-10T07:38:13.626Z,14.96
2023-03-10T07:40:41.579Z,15.20
2023-03-10T07:43:08.517Z,15.35
2023-03-10T07:45:38.212Z,15.51
2023-03-10T07:48:06.012Z,15.67
2023-03-10T07:50:33.289Z,15.81
2023-03-10T07:53:00.275Z,15.97
2023-03-10T07:55:27.250Z,16.04
2023-03-10T07:57:56.691Z,16.16
2023-03-10T08:00:23.798Z,16.21
2023-03-10T08:02:50.856Z,16.25
2023-03-10T08:05:17.940Z,16.29
2023-03-10T08:07:44.925Z,16.27
2023-03-10T08:10:12.863Z,16.26
2023-03-10T08:12:39.849Z,16.25
2023-03-10T08:15:07.602Z,16.16
2023-03-10T08:17:34.492Z,16.08
2023-03-10T08:20:01.963Z,15.95
2023-03-10T08:22:29.058Z,15.87
2023-03-10T08:24:56.246Z,15.83
2023-03-10T08:27:23.269Z,15.74
2023-03-10T08:29:50.533Z,15.64
2023-03-10T08:32:18.356Z,15.53
2023-03-10T08:34:45.620Z,15.42
2023-03-10T08:37:12.527Z,15.33
2023-03-10T08:39:40.262Z,15.29
2023-03-10T08:42:11.508Z,15.24
2023-03-10T08:44:39.434Z,15.17
2023-03-10T08:47:06.646Z,14.99
2023-03-10T08:49:33.980Z,14.85
2023-03-10T08:52:01.176Z,14.76
2023-03-10T08:54:28.834Z,14.70
2023-03-10T08:56:57.046Z,14.64
2023-03-10T08:59:24.039Z,14.55
2023-03-10T09:01:51.073Z,14.45
2023-03-10T09:04:18.155Z,14.42
2023-03-10T09:06:45.173Z,14.31
2023-03-10T09:09:13.060Z,14.25
2023-03-10T09:11:41.372Z,14.18
2023-03-10T09:14:11.011Z,14.13
2023-03-10T09:16:39.564Z,14.03
2023-03-10T09:19:06.690Z,14.01
2023-03-10T09:21:34.030Z,13.92
2023-03-10T09:24:03.646Z,13.80
2023-03-10T09:26:30.917Z,13.71
2023-03-10T09:28:57.932Z,13.60
2023-03-10T09:31:34.539Z,13.50
2023-03-10T09:34:02.080Z,13.40
2023-03-10T09:36:29.799Z,13.37
2023-03-10T09:39:00.458Z,13.32
2023-03-10T09:42:25.993Z,13.24
2023-03-10T09:45:37.631Z,12.97
2023-03-10T09:48:26.369Z,12.81
2023-03-10T09:50:56.499Z,12.75
2023-03-10T09:54:04.232Z,12.69
2023-03-10T09:56:36.292Z,12.62
2023-03-10T09:59:09.696Z,12.66
2023-03-10T10:01:37.833Z,12.69
2023-03-10T10:04:19.575Z,12.69
2023-03-10T10:06:49.056Z,12.76
2023-03-10T10:09:28.098Z,12.84
2023-03-10T10:11:55.962Z,12.97
2023-03-10T10:14:31.329Z,13.09
2023-03-10T10:17:52.961Z,13.27
2023-03-10T10:20:29.522Z,13.40
2023-03-10T10:22:56.463Z,13.61
2023-03-10T10:25:31.967Z,13.77
2023-03-10T10:28:01.409Z,14.02
2023-03-10T10:30:47.524Z,14.22
2023-03-10T10:33:16.499Z,14.44
2023-03-10T10:36:02.623Z,14.65
2023-03-10T10:38:32.414Z,14.85
2023-03-10T10:41:08.068Z,15.08
2023-03-10T10:43:44.589Z,15.26
2023-03-10T10:46:15.036Z,15.47
2023-03-10T10:48:51.488Z,15.58
2023-03-10T10:51:28.992Z,15.67
2023-03-10T10:53:59.551Z,15.78
2023-03-10T10:56:31.245Z,15.84
2023-03-10T10:59:04.055Z,15.88
2023-03-10T11:02:11.919Z,15.95
2023-03-10T11:04:45.829Z,16.02
2023-03-10T11:07:25.290Z,16.15
2023-03-10T11:09:52.955Z,16.29
2023-03-10T11:12:36.000Z,16.45
2023-03-10T11:15:37.179Z,16.55
2023-03-10T11:18:13.163Z,16.51
2023-03-10T11:21:18.167Z,16.51
2023-03-10T11:24:26.001Z,16.48
2023-03-10T11:27:05.332Z,16.41
2023-03-10T11:29:56.282Z,16.39
2023-03-10T11:32:36.637Z,16.38
2023-03-10T11:35:32.973Z,16.40
2023-03-10T11:38:21.788Z,16.33
2023-03-10T11:40:54.164Z,16.30
2023-03-10T11:43:28.904Z,16.32
2023-03-10T11:46:01.472Z,16.34
2023-03-10T11:48:57.073Z,16.44
2023-03-10T11:51:36.392Z,16.55
2023-03-10T11:54:21.356Z,16.68
2023-03-10T11:56:51.088Z,16.78
2023-03-10T11:59:33.644Z,16.88
2023-03-10T12:02:29.908Z,17.02
2023-03-10T12:05:21.796Z,17.07
2023-03-10T12:08:02.825Z,17.18
2023-03-10T12:10:31.390Z,17.26
2023-03-10T12:12:58.482Z,17.39
2023-03-10T12:15:39.769Z,17.43
2023-03-10T12:18:08.171Z,17.52
2023-03-10T12:20:36.021Z,17.55
2023-03-10T12:23:26.928Z,17.58
2023-03-10T12:25:54.014Z,17.59
2023-03-10T12:28:29.072Z,17.66
2023-03-10T12:31:12.133Z,17.71
2023-03-10T12:33:50.622Z,17.74
2023-03-10T12:36:31.718Z,17.77
2023-03-10T12:39:23.054Z,17.78
2023-03-10T12:41:53.140Z,17.75
2023-03-10T12:44:41.123Z,17.73
2023-03-10T12:47:08.104Z,17.73
2023-03-10T12:49:40.921Z,17.72
2023-03-10T12:52:08.021Z,17.73
2023-03-10T12:55:08.731Z,17.75
2023-03-10T12:58:12.239Z,17.65
2023-03-10T13:00:58.618Z,17.56
2023-03-10T13:03:35.388Z,17.51
2023-03-10T13:06:07.527Z,17.44
2023-03-10T13:08:44.932Z,17.39
2023-03-10T13:11:25.169Z,17.40
2023-03-10T13:13:59.175Z,17.41
2023-03-10T13:16:26.188Z,17.48
2023-03-10T13:18:54.730Z,17.57
2023-03-10T13:21:28.533Z,17.60
2023-03-10T13:23:57.371Z,17.63
2023-03-10T13:26:25.240Z,17.68
2023-03-10T13:28:57.944Z,17.78
2023-03-10T13:31:34.665Z,17.75
2023-03-10T13:34:20.636Z,17.74
2023-03-10T13:36:48.882Z,17.77
2023-03-10T13:39:27.360Z,17.75
2023-03-10T13:41:58.730Z,17.71
2023-03-10T13:44:28.257Z,17.71
2023-03-10T13:47:01.488Z,17.71
2023-03-10T13:49:34.690Z,17.75
2023-03-10T13:52:07.774Z,17.80
2023-03-10T13:54:37.014Z,17.87
2023-03-10T13:57:33.736Z,17.94
2023-03-10T14:00:01.819Z,18.02
2023-03-10T14:02:36.220Z,18.06
2023-03-10T14:05:06.219Z,18.13
2023-03-10T14:07:36.695Z,18.09
2023-03-10T14:10:08.058Z,18.06
2023-03-10T14:12:42.354Z,18.05
2023-03-10T14:15:24.492Z,17.97
2023-03-10T14:18:06.488Z,17.95
2023-03-10T14:20:37.081Z,17.90
2023-03-10T14:23:19.361Z,17.91
2023-03-10T14:25:47.690Z,17.91
2023-03-10T14:28:33.254Z,17.84
2023-03-10T14:31:02.527Z,17.75
2023-03-10T14:33:30.252Z,17.75
2023-03-10T14:35:57.194Z,17.72
2023-03-10T14:38:24.240Z,17.64
2023-03-10T14:40:54.508Z,17.59
2023-03-10T14:43:25.811Z,17.52
2023-03-10T14:46:01.054Z,17.43
2023-03-10T14:48:34.502Z,17.31
2023-03-10T14:51:01.627Z,17.25
2023-03-10T14:53:30.975Z,17.21
2023-03-10T14:56:01.763Z,17.08
2023-03-10T14:58:35.181Z,17.07
2023-03-10T15:01:02.719Z,17.05
2023-03-10T15:03:29.641Z,17.02
2023-03-10T15:05:56.806Z,17.01
2023-03-10T15:08:23.832Z,16.84
2023-03-10T15:10:52.016Z,16.75
2023-03-10T15:13:23.095Z,16.57
2023-03-10T15:15:50.915Z,16.40
2023-03-10T15:18:21.749Z,16.22
2023-03-10T15:20:49.255Z,16.06
2023-03-10T15:23:19.863Z,15.84
2023-03-10T15:25:47.590Z,15.68
2023-03-10T15:28:14.812Z,15.62
2023-03-10T15:30:43.070Z,15.48
2023-03-10T15:33:10.763Z,15.34
2023-03-10T15:35:39.991Z,15.23
2023-03-10T15:38:07.098Z,15.13
2023-03-10T15:40:35.474Z,15.11
2023-03-10T15:43:02.703Z,15.35
2023-03-10T15:45:31.294Z,15.66
2023-03-10T15:47:59.142Z,15.91
2023-03-10T15:50:27.486Z,16.10
2023-03-10T15:52:58.878Z,16.17
2023-03-10T15:55:27.587Z,16.23
2023-03-10T15:57:56.082Z,16.23
2023-03-10T16:00:26.401Z,16.25
2023-03-10T16:02:54.142Z,16.16
2023-03-10T16:05:21.474Z,16.14
2023-03-10T16:07:48.505Z,15.92
2023-03-10T16:10:19.823Z,15.74
2023-03-10T16:12:46.899Z,15.59
2023-03-10T16:15:16.946Z,15.35
2023-03-10T16:17:45.202Z,15.13
2023-03-10T16:20:13.799Z,14.89
2023-03-10T16:22:43.203Z,14.72
2023-03-10T16:25:18.971Z,14.52
2023-03-10T16:27:47.578Z,14.30
2023-03-10T16:30:17.292Z,14.08
2023-03-10T16:32:46.420Z,13.88
2023-03-10T16:35:13.929Z,13.65
2023-03-10T16:37:42.715Z,13.47
2023-03-10T16:40:11.481Z,13.29
2023-03-10T16:42:38.925Z,13.13
2023-03-10T16:45:07.440Z,13.03
2023-03-10T16:47:34.429Z,12.88
2023-03-10T16:50:01.409Z,12.78
2023-03-10T16:52:28.370Z,12.71
2023-03-10T16:55:01.196Z,12.62
2023-03-10T16:57:28.133Z,12.57
2023-03-10T16:59:55.067Z,12.50
2023-03-10T17:02:22.027Z,12.45
2023-03-10T17:04:49.085Z,12.45
2023-03-10T17:07:16.527Z,12.43
2023-03-10T17:09:43.556Z,12.43
2023-03-10T17:12:10.469Z,12.43
2023-03-10T17:14:37.643Z,12.43
2023-03-10T17:17:06.626Z,12.45
2023-03-10T17:19:34.761Z,12.45
2023-03-10T17:22:01.761Z,12.46
2023-03-10T17:24:29.561Z,12.44
2023-03-10T17:26:57.097Z,12.45
2023-03-10T17:29:24.127Z,12.43
2023-03-10T17:31:51.789Z,12.44
2023-03-10T17:34:20.108Z,12.41
2023-03-10T17:36:50.753Z,12.41
2023-03-10T17:39:21.376Z,12.41
2023-03-10T17:41:49.283Z,12.36
2023-03-10T17:44:16.950Z,12.33
2023-03-10T17:46:44.208Z,12.32
2023-03-10T17:49:15.297Z,12.22
2023-03-10T17:51:44.287Z,12.19
2023-03-10T17:54:20.216Z,12.11
2023-03-10T17:56:48.721Z,12.00
2023-03-10T17:59:16.677Z,11.93
2023-03-10T18:01:45.801Z,11.91
2023-03-10T18:04:13.302Z,11.84
2023-03-10T18:06:40.460Z,11.81
2023-03-10T18:09:11.504Z,11.76
2023-03-10T18:11:38.993Z,11.64
2023-03-10T18:14:06.550Z,11.58
2023-03-10T18:16:38.921Z,11.48
2023-03-10T18:19:10.474Z,11.40
2023-03-10T18:21:38.604Z,11.32
2023-03-10T18:24:06.495Z,11.25
2023-03-10T18:26:33.796Z,11.25
2023-03-10T18:29:01.073Z,11.20
2023-03-10T18:31:34.159Z,11.19
2023-03-10T18:34:02.253Z,11.11
2023-03-10T18:36:30.163Z,11.08
2023-03-10T18:38:57.874Z,11.12
2023-03-10T18:41:27.770Z,11.15
2023-03-10T18:43:54.946Z,11.09
2023-03-10T18:46:22.515Z,11.05
2023-03-10T18:48:55.866Z,11.08
2023-03-10T18:51:28.113Z,11.09
2023-03-10T18:53:55.640Z,11.11
2023-03-10T18:56:25.597Z,11.12
2023-03-10T18:58:52.637Z,11.17
2023-03-10T19:01:19.536Z,11.21
2023-03-10T19:03:46.730Z,11.24
2023-03-10T19:06:13.877Z,11.28
2023-03-10T19:08:41.509Z,11.30
2023-03-10T19:11:08.606Z,11.38
2023-03-10T19:13:40.267Z,11.35
2023-03-10T19:16:09.408Z,11.38
2023-03-10T19:18:36.775Z,11.38
2023-03-10T19:21:04.238Z,11.37
2023-03-10T19:23:32.238Z,11.28
2023-03-10T19:25:59.228Z,11.19
2023-03-10T19:28:26.406Z,11.15
2023-03-10T19:30:53.418Z,11.11
2023-03-10T19:33:20.614Z,11.03
2023-03-10T19:35:47.495Z,11.01
2023-03-10T19:38:14.733Z,10.93
2023-03-10T19:40:46.064Z,10.93
2023-03-10T19:43:13.253Z,10.85
2023-03-10T19:45:40.467Z,10.87
2023-03-10T19:48:07.593Z,10.86
2023-03-10T19:50:34.485Z,10.89
2023-03-10T19:53:01.610Z,10.94
2023-03-10T19:55:29.519Z,10.97
2023-03-10T19:57:56.698Z,10.88
2023-03-10T20:00:30.890Z,10.83
2023-03-10T20:02:58.397Z,10.77
2023-03-10T20:05:26.711Z,10.69
2023-03-10T20:07:53.932Z,10.50
2023-03-10T20:10:20.813Z,10.47
2023-03-10T20:12:51.046Z,10.43
2023-03-10T20:15:18.668Z,10.35
2023-03-10T20:17:45.924Z,10.34
2023-03-10T20:20:15.108Z,10.33
2023-03-10T20:22:47.806Z,10.25
2023-03-10T20:25:19.364Z,10.17
2023-03-10T20:27:48.132Z,10.14
2023-03-10T20:30:27.581Z,10.00
2023-03-10T20:32:55.735Z,9.91
2023-03-10T20:35:23.484Z,9.84
2023-03-10T20:37:50.610Z,9.83
2023-03-10T20:40:22.982Z,9.80
2023-03-10T20:42:56.898Z,9.77
2023-03-10T20:45:24.073Z,9.73
2023-03-10T20:47:53.364Z,9.72
2023-03-10T20:50:20.780Z,9.64
2023-03-10T20:52:48.401Z,9.57
2023-03-10T20:55:19.691Z,9.57
2023-03-10T20:57:48.498Z,9.54
2023-03-10T21:00:17.546Z,9.56
2023-03-10T21:02:46.546Z,9.52
2023-03-10T21:05:13.906Z,9.53
2023-03-10T21:07:40.947Z,9.52
2023-03-10T21:10:16.886Z,9.50
2023-03-10T21:12:44.672Z,9.47
2023-03-10T21:15:16.696Z,9.51
2023-03-10T21:17:44.089Z,9.40
2023-03-10T21:20:15.610Z,9.42
2023-03-10T21:22:43.032Z,9.41
2023-03-10T21:25:16.931Z,9.40
2023-03-10T21:27:49.650Z,9.32
2023-03-10T21:30:17.478Z,9.26
2023-03-10T21:32:45.062Z,9.15
2023-03-10T21:35:13.729Z,9.13
2023-03-10T21:37:42.450Z,9.07
2023-03-10T21:40:11.813Z,9.01
2023-03-10T21:42:38.972Z,9.01
2023-03-10T21:45:07.562Z,9.01
2023-03-10T21:47:34.607Z,8.96
2023-03-10T21:50:01.532Z,8.86
2023-03-10T21:52:28.412Z,8.81
2023-03-10T21:54:55.412Z,8.80
2023-03-10T21:57:22.364Z,8.79
2023-03-10T21:59:49.398Z,8.75
2023-03-10T22:02:30.632Z,8.76
2023-03-10T22:04:57.750Z,8.76
2023-03-10T22:07:24.831Z,8.73
2023-03-10T22:09:51.761Z,8.67
2023-03-10T22:12:18.649Z,8.69
2023-03-10T22:14:45.967Z,8.73
2023-03-10T22:17:12.954Z,8.68
2023-03-10T22:19:39.950Z,8.63
2023-03-10T22:22:06.870Z,8.56
2023-03-10T22:24:34.089Z,8.53
2023-03-10T22:27:01.100Z,8.50
2023-03-10T22:29:28.013Z,8.44
2023-03-10T22:31:56.194Z,8.42
2023-03-10T22:34:23.177Z,8.34
2023-03-10T22:36:50.228Z,8.28
2023-03-10T22:39:17.290Z,8.26
2023-03-10T22:41:44.561Z,8.21
2023-03-10T22:44:11.820Z,8.16
2023-03-10T22:46:39.325Z,8.10
2023-03-10T22:49:06.465Z,8.05
2023-03-10T22:51:33.428Z,8.00
2023-03-10T22:54:00.897Z,8.05
2023-03-10T22:56:27.858Z,8.00
2023-03-10T22:58:55.596Z,8.01
2023-03-10T23:01:23.077Z,8.01
2023-03-10T23:03:50.616Z,8.04
2023-03-10T23:06:18.776Z,8.03
2023-03-10T23:08:46.688Z,8.03
2023-03-10T23:11:15.748Z,8.05
2023-03-10T23:13:43.112Z,8.10
2023-03-10T23:16:10.206Z,8.13
2023-03-10T23:18:37.160Z,8.18
2023-03-10T23:21:04.888Z,8.17
2023-03-10T23:23:31.975Z,8.20
2023-03-10T23:25:59.067Z,8.18
2023-03-10T23:28:26.308Z,8.13
2023-03-10T23:30:54.247Z,8.17
2023-03-10T23:33:24.059Z,8.10
2023-03-10T23:35:53.945Z,8.10
2023-03-10T23:38:23.771Z,8.07
2023-03-10T23:40:52.614Z,8.15
2023-03-10T23:43:19.726Z,8.19
2023-03-10T23:45:47.023Z,8.22
2023-03-10T23:48:17.214Z,8.26
2023-03-10T23:50:46.484Z,8.28
2023-03-10T23:53:16.135Z,8.19
2023-03-10T23:55:46.071Z,8.08
2023-03-10T23:58:16.591Z,7.88
